Time;durP1;ratioP1;P1;durP2;ratioP2;P2;SDS_P1;SDS_P2;PMS_P1;PMS_P2;Temp;Humidity;BMP_temperature;BMP_pressure;BME280_temperature;BME280_humidity;BME280_pressure;Samples;Min_cycle;Max_cycle;Signal;HPM_P1;HPM_P2
2020/12/09 00:01:53;;;;;;;106.38;41.65;;;-0.50;99.90;;;;;;5005968;28;20422;-73
2020/12/09 00:04:20;;;;;;;106.13;40.70;;;-0.60;99.90;;;;;;5007522;28;20056;-73
2020/12/09 00:06:51;;;;;;;103.10;40.30;;;-0.60;99.90;;;;;;5019545;28;20041;-73
2020/12/09 00:09:20;;;;;;;109.35;41.17;;;-0.50;99.90;;;;;;5025744;28;20147;-73
2020/12/09 00:11:47;;;;;;;97.00;38.53;;;-0.50;99.90;;;;;;5007859;28;20052;-74
2020/12/09 00:14:14;;;;;;;106.70;40.13;;;-0.50;99.90;;;;;;5026769;28;20417;-73
2020/12/09 00:16:40;;;;;;;97.13;37.43;;;-0.50;99.90;;;;;;5020133;28;20165;-73
2020/12/09 00:19:07;;;;;;;98.45;38.67;;;-0.40;99.90;;;;;;5008712;28;20050;-73
2020/12/09 00:21:34;;;;;;;94.85;36.83;;;-0.50;99.90;;;;;;5023675;28;20052;-72
2020/12/09 00:24:01;;;;;;;107.05;36.95;;;-0.40;99.90;;;;;;5043086;28;20152;-72
2020/12/09 00:26:28;;;;;;;105.25;36.15;;;-0.40;99.90;;;;;;5024977;28;20054;-73
2020/12/09 00:28:56;;;;;;;105.47;38.58;;;-0.30;99.90;;;;;;5007841;28;20136;-72
2020/12/09 00:31:25;;;;;;;87.07;35.85;;;-0.30;99.90;;;;;;5002300;28;20058;-73
2020/12/09 00:33:51;;;;;;;91.88;34.63;;;-0.30;99.90;;;;;;5011010;28;20042;-73
2020/12/09 00:36:20;;;;;;;81.32;33.35;;;-0.30;99.90;;;;;;5025455;28;20053;-73
2020/12/09 00:38:48;;;;;;;87.18;35.17;;;-0.50;99.90;;;;;;5026857;28;20053;-73
2020/12/09 00:41:21;;;;;;;82.82;32.22;;;-0.60;99.90;;;;;;5026342;28;20053;-73
2020/12/09 00:43:48;;;;;;;84.22;33.97;;;-0.70;99.90;;;;;;5008471;28;20046;-73
2020/12/09 00:46:16;;;;;;;93.35;35.17;;;-0.70;99.90;;;;;;5041467;28;20414;-73
2020/12/09 00:48:44;;;;;;;83.13;32.88;;;-0.70;99.90;;;;;;5009230;28;20633;-73
2020/12/09 00:51:12;;;;;;;97.82;35.85;;;-0.80;99.90;;;;;;5022956;28;20724;-73
2020/12/09 00:53:39;;;;;;;98.13;35.17;;;-0.80;99.90;;;;;;5027043;28;20156;-73
2020/12/09 00:56:06;;;;;;;83.35;35.05;;;-0.80;99.90;;;;;;4994463;28;20054;-72
2020/12/09 00:58:34;;;;;;;88.13;35.85;;;-0.80;99.90;;;;;;4982816;28;20124;-73
2020/12/09 01:01:01;;;;;;;84.38;36.33;;;-0.90;99.90;;;;;;4979234;28;20674;-73
2020/12/09 01:03:29;;;;;;;90.00;34.20;;;-0.90;99.90;;;;;;4986098;28;20518;-73
2020/12/09 01:05:55;;;;;;;84.28;32.30;;;-0.90;99.90;;;;;;5012056;28;20045;-73
2020/12/09 01:08:21;;;;;;;85.70;35.22;;;-0.90;99.90;;;;;;5005556;28;20140;-73
2020/12/09 01:10:48;;;;;;;93.07;36.42;;;-0.70;99.90;;;;;;5011871;28;20564;-73
2020/12/09 01:13:16;;;;;;;103.47;36.85;;;-0.70;99.90;;;;;;5025616;28;20100;-73
2020/12/09 01:15:43;;;;;;;101.40;36.38;;;-0.50;99.90;;;;;;5024559;28;20490;-73
2020/12/09 01:18:09;;;;;;;97.20;35.10;;;-0.30;99.90;;;;;;5024889;28;20041;-73
2020/12/09 01:20:36;;;;;;;92.53;35.38;;;-0.30;99.90;;;;;;5024773;28;20048;-73
2020/12/09 01:23:03;;;;;;;91.88;34.83;;;-0.20;99.90;;;;;;5024278;28;20050;-73
2020/12/09 01:25:29;;;;;;;85.95;33.60;;;-0.20;99.90;;;;;;5007106;28;20050;-73
2020/12/09 01:28:03;;;;;;;81.80;32.67;;;-0.30;99.90;;;;;;4969509;28;20063;-73
2020/12/09 01:30:30;;;;;;;85.35;32.40;;;-0.40;99.90;;;;;;4986620;28;20038;-72
2020/12/09 01:32:58;;;;;;;82.07;34.05;;;-0.40;99.90;;;;;;5005189;28;20069;-73
2020/12/09 01:35:24;;;;;;;67.93;30.10;;;-0.40;99.90;;;;;;4986940;28;20045;-73
2020/12/09 01:37:51;;;;;;;72.63;32.78;;;-0.50;99.90;;;;;;5020317;28;20061;-73
2020/12/09 01:40:19;;;;;;;79.43;31.55;;;-0.50;99.90;;;;;;5006026;28;20085;-73
2020/12/09 01:42:47;;;;;;;78.38;31.98;;;-0.60;99.90;;;;;;5006178;28;20050;-73
2020/12/09 01:45:13;;;;;;;80.43;32.70;;;-0.60;99.90;;;;;;5004390;28;20510;-73
2020/12/09 01:47:43;;;;;;;82.55;33.38;;;-0.70;99.90;;;;;;5021105;28;20134;-73
2020/12/09 01:50:11;;;;;;;77.30;31.77;;;-0.50;99.90;;;;;;5000302;28;20712;-73
2020/12/09 01:52:38;;;;;;;77.18;30.88;;;-0.60;99.90;;;;;;5024617;28;20037;-73
2020/12/09 01:55:04;;;;;;;81.13;32.58;;;-0.60;99.90;;;;;;5021904;28;20075;-72
2020/12/09 01:57:30;;;;;;;80.03;30.63;;;-0.60;99.90;;;;;;4984433;28;20049;-73
2020/12/09 01:59:57;;;;;;;83.85;31.55;;;-0.50;99.90;;;;;;4969011;28;20088;-73
2020/12/09 02:02:23;;;;;;;77.45;32.38;;;-0.50;99.90;;;;;;4986378;28;20054;-73
2020/12/09 02:04:51;;;;;;;78.15;30.50;;;-0.50;99.90;;;;;;5004278;28;20045;-73
2020/12/09 02:07:25;;;;;;;77.22;30.33;;;-0.50;99.90;;;;;;4991288;28;20689;-74
2020/12/09 02:09:59;;;;;;;82.38;31.25;;;-0.50;99.90;;;;;;4965069;28;20046;-73
2020/12/09 02:12:25;;;;;;;76.78;29.30;;;-0.50;99.90;;;;;;4984728;28;20064;-73
2020/12/09 02:14:52;;;;;;;70.90;29.45;;;-0.50;99.90;;;;;;4968319;28;20069;-73
2020/12/09 02:17:18;;;;;;;71.28;28.85;;;-0.30;99.90;;;;;;4965799;28;20397;-72
2020/12/09 02:19:44;;;;;;;79.28;30.85;;;-0.20;99.90;;;;;;4966503;28;20512;-73
2020/12/09 02:22:12;;;;;;;73.38;30.05;;;-0.20;99.90;;;;;;4968777;28;20046;-73
2020/12/09 02:24:39;;;;;;;72.30;27.63;;;-0.30;99.90;;;;;;4984868;28;20054;-73
2020/12/09 02:27:06;;;;;;;73.28;29.33;;;-0.20;99.90;;;;;;4999420;28;20367;-74
2020/12/09 02:29:32;;;;;;;73.03;28.52;;;-0.20;99.90;;;;;;4986278;28;20046;-74
2020/12/09 02:31:59;;;;;;;76.10;30.98;;;-0.10;99.90;;;;;;4984289;28;20169;-74
2020/12/09 02:34:25;;;;;;;88.00;32.65;;;0.00;99.90;;;;;;4987025;28;20085;-74
2020/12/09 02:36:51;;;;;;;82.85;30.77;;;0.00;99.90;;;;;;4994458;28;20061;-74
2020/12/09 02:39:31;;;;;;;86.57;32.30;;;0.00;99.90;;;;;;5002751;28;20193;-73
2020/12/09 02:41:58;;;;;;;67.00;29.02;;;-0.10;99.90;;;;;;5004259;28;20046;-74
2020/12/09 02:44:24;;;;;;;74.93;27.63;;;0.00;99.90;;;;;;5009282;28;20241;-74
2020/12/09 02:46:50;;;;;;;74.10;27.98;;;0.10;99.90;;;;;;4998838;28;20038;-73
2020/12/09 02:49:17;;;;;;;74.10;28.52;;;-0.10;99.90;;;;;;4984768;28;20045;-74
2020/12/09 02:51:44;;;;;;;73.88;26.95;;;-0.20;99.90;;;;;;4984298;28;20039;-74
2020/12/09 02:54:11;;;;;;;73.88;29.13;;;-0.20;99.90;;;;;;4970338;28;20142;-74
2020/12/09 02:56:37;;;;;;;73.10;28.33;;;-0.20;99.90;;;;;;4994003;28;20068;-74
2020/12/09 02:59:03;;;;;;;63.38;26.05;;;-0.10;99.90;;;;;;4992404;28;20054;-74
2020/12/09 03:01:33;;;;;;;74.22;29.13;;;0.00;99.90;;;;;;4988252;28;20046;-72
2020/12/09 03:04:01;;;;;;;68.25;27.13;;;0.10;99.90;;;;;;4989432;28;20050;-72
2020/12/09 03:06:27;;;;;;;70.68;27.88;;;-0.10;99.90;;;;;;5006649;28;20084;-72
2020/12/09 03:08:53;;;;;;;68.32;28.52;;;-0.10;99.90;;;;;;5024741;28;20054;-73
2020/12/09 03:11:20;;;;;;;65.50;29.05;;;-0.20;99.90;;;;;;5007892;28;20081;-73
2020/12/09 03:13:46;;;;;;;73.40;30.00;;;-0.10;99.90;;;;;;5007986;28;20061;-73
2020/12/09 03:16:13;;;;;;;65.22;28.10;;;-0.10;99.90;;;;;;5008257;28;20057;-73
2020/12/09 03:18:40;;;;;;;77.30;30.65;;;0.00;99.90;;;;;;5007488;28;20498;-73
2020/12/09 03:21:07;;;;;;;73.40;31.38;;;0.00;99.90;;;;;;5005631;28;20050;-73
2020/12/09 03:23:37;;;;;;;74.25;32.28;;;0.00;99.90;;;;;;4990985;28;20201;-73
2020/12/09 03:26:04;;;;;;;72.78;31.13;;;0.00;99.90;;;;;;5016433;28;20049;-74
2020/12/09 03:28:32;;;;;;;66.80;29.60;;;0.00;99.90;;;;;;5014109;28;20064;-73
2020/12/09 03:30:58;;;;;;;70.25;30.35;;;0.00;99.90;;;;;;4997305;28;20427;-73
2020/12/09 03:33:24;;;;;;;71.63;31.92;;;0.00;99.90;;;;;;4988927;28;20057;-73
2020/12/09 03:35:50;;;;;;;64.25;29.55;;;0.00;99.90;;;;;;5013140;28;20060;-73
2020/12/09 03:38:17;;;;;;;83.40;31.10;;;0.20;99.90;;;;;;5043581;28;20045;-73
2020/12/09 03:40:43;;;;;;;76.03;30.73;;;0.20;99.90;;;;;;5009837;28;20056;-74
2020/12/09 03:43:10;;;;;;;71.40;31.20;;;0.10;99.90;;;;;;5022606;28;20037;-74
2020/12/09 03:45:36;;;;;;;73.95;31.38;;;0.10;99.90;;;;;;5012443;28;20481;-73
2020/12/09 03:48:03;;;;;;;78.45;32.42;;;0.10;99.90;;;;;;5026377;28;20119;-73
2020/12/09 03:50:30;;;;;;;85.93;33.13;;;0.30;99.90;;;;;;5009525;28;20127;-73
2020/12/09 03:52:56;;;;;;;82.68;32.10;;;0.20;99.90;;;;;;5042683;28;20124;-73
2020/12/09 03:55:23;;;;;;;86.75;33.92;;;0.20;99.90;;;;;;5018391;28;20517;-73
2020/12/09 03:57:50;;;;;;;87.80;32.08;;;0.20;99.90;;;;;;4986183;28;20045;-73
2020/12/09 04:00:17;;;;;;;81.93;32.38;;;0.30;99.90;;;;;;4985114;28;20038;-73
2020/12/09 04:02:45;;;;;;;77.07;31.65;;;0.20;99.90;;;;;;5002059;28;20042;-73
2020/12/09 04:05:11;;;;;;;70.93;33.20;;;0.10;99.90;;;;;;4986723;28;20579;-73
2020/12/09 04:07:37;;;;;;;79.97;31.90;;;0.20;99.90;;;;;;4986624;28;20054;-73
2020/12/09 04:10:05;;;;;;;77.82;30.55;;;0.20;99.90;;;;;;4986820;28;20054;-73
2020/12/09 04:12:31;;;;;;;68.03;29.83;;;0.20;99.90;;;;;;4986610;28;20492;-73
2020/12/09 04:14:58;;;;;;;72.45;28.75;;;0.10;99.90;;;;;;4985988;28;20055;-73
2020/12/09 04:17:24;;;;;;;81.72;31.27;;;0.20;99.90;;;;;;4986322;28;20061;-73
2020/12/09 04:19:50;;;;;;;67.32;28.52;;;0.10;99.90;;;;;;4970100;28;20053;-73
2020/12/09 04:22:17;;;;;;;78.70;30.58;;;0.10;99.90;;;;;;4994116;28;20139;-73
2020/12/09 04:24:43;;;;;;;73.82;31.02;;;0.10;99.90;;;;;;5021586;28;20400;-73
2020/12/09 04:27:10;;;;;;;79.65;31.02;;;0.10;99.90;;;;;;5006078;28;20156;-73
2020/12/09 04:29:36;;;;;;;65.95;30.42;;;0.10;99.90;;;;;;5005963;28;20112;-73
2020/12/09 04:32:03;;;;;;;68.00;28.67;;;0.10;99.90;;;;;;5006425;28;20046;-73
2020/12/09 04:34:34;;;;;;;90.03;34.40;;;0.10;99.90;;;;;;5006040;28;20050;-73
2020/12/09 04:37:00;;;;;;;76.72;31.48;;;0.10;99.90;;;;;;5005193;28;20053;-73
2020/12/09 04:39:27;;;;;;;72.70;30.33;;;0.10;99.90;;;;;;5006472;28;20058;-73
2020/12/09 04:41:54;;;;;;;78.97;32.97;;;0.20;99.90;;;;;;4988990;28;20379;-73
2020/12/09 04:44:20;;;;;;;76.63;31.40;;;0.30;99.90;;;;;;5007174;28;20104;-73
2020/12/09 04:46:50;;;;;;;69.95;32.10;;;0.20;99.90;;;;;;5020584;28;20064;-73
2020/12/09 04:49:20;;;;;;;80.20;29.60;;;0.20;99.90;;;;;;4989766;28;20116;-73
2020/12/09 04:52:00;;;;;;;73.25;33.65;;;0.20;99.90;;;;;;5006757;28;20045;-73
2020/12/09 04:54:37;;;;;;;75.28;31.48;;;0.30;99.90;;;;;;5005795;28;20054;-73
2020/12/09 04:57:38;;;;;;;77.63;31.70;;;0.30;99.90;;;;;;5004727;28;20045;-73
2020/12/09 05:00:12;;;;;;;73.38;29.15;;;0.30;99.90;;;;;;5006763;28;20042;-73
2020/12/09 05:02:46;;;;;;;83.80;31.83;;;0.30;99.90;;;;;;5006136;28;20148;-73
2020/12/09 05:05:14;;;;;;;65.82;30.70;;;0.30;99.90;;;;;;5004496;28;20108;-73
2020/12/09 05:07:47;;;;;;;76.85;30.60;;;0.30;99.90;;;;;;5006533;28;20056;-73
2020/12/09 05:10:16;;;;;;;84.85;32.40;;;0.40;99.90;;;;;;5006108;28;20058;-74
2020/12/09 05:12:44;;;;;;;75.97;33.08;;;0.50;99.90;;;;;;5026565;28;20430;-73
2020/12/09 05:15:16;;;;;;;74.72;31.85;;;0.40;99.90;;;;;;5024909;28;20060;-73
2020/12/09 05:18:02;;;;;;;75.72;31.67;;;0.50;99.90;;;;;;5025983;28;20647;-73
2020/12/09 05:20:36;;;;;;;70.15;32.72;;;0.60;99.90;;;;;;5015613;28;20054;-73
2020/12/09 05:23:05;;;;;;;77.28;32.22;;;0.70;99.90;;;;;;5006281;28;20049;-72
2020/12/09 05:25:32;;;;;;;74.70;31.00;;;0.70;99.90;;;;;;4989617;28;20054;-72
2020/12/09 05:27:59;;;;;;;88.15;36.17;;;0.60;99.90;;;;;;4995262;28;20124;-72
2020/12/09 05:30:45;;;;;;;86.90;34.00;;;0.60;99.90;;;;;;4970420;28;21019;-73
2020/12/09 05:33:14;;;;;;;72.72;32.35;;;0.60;99.90;;;;;;4987964;28;20667;-73
2020/12/09 05:35:41;;;;;;;81.40;32.47;;;0.50;99.90;;;;;;4999845;28;20066;-73
2020/12/09 05:38:10;;;;;;;81.15;35.22;;;0.50;99.90;;;;;;4985318;28;20054;-72
2020/12/09 05:40:39;;;;;;;87.25;34.50;;;0.60;99.90;;;;;;4984527;28;20046;-73
2020/12/09 05:43:05;;;;;;;74.82;32.95;;;0.50;99.90;;;;;;4952006;28;20049;-73
2020/12/09 05:45:32;;;;;;;91.63;33.95;;;0.60;99.90;;;;;;5000357;28;20042;-73
2020/12/09 05:48:12;;;;;;;91.93;36.25;;;0.60;99.90;;;;;;4990424;28;20063;-73
2020/12/09 05:50:46;;;;;;;95.65;34.53;;;0.70;99.90;;;;;;4991458;28;20637;-73
2020/12/09 05:53:15;;;;;;;86.68;36.55;;;0.60;99.90;;;;;;5024604;28;20143;-73
2020/12/09 05:55:43;;;;;;;81.28;36.67;;;0.60;99.90;;;;;;4996570;28;20086;-73
2020/12/09 05:58:19;;;;;;;87.00;35.78;;;0.60;99.90;;;;;;4981196;28;20177;-74
2020/12/09 06:01:02;;;;;;;80.95;35.35;;;0.60;99.90;;;;;;4991429;28;20074;-73
2020/12/09 06:03:30;;;;;;;80.95;34.38;;;0.70;99.90;;;;;;4985644;28;20086;-73
2020/12/09 06:06:11;;;;;;;87.05;37.05;;;0.70;99.90;;;;;;4998554;28;20046;-73
2020/12/09 06:08:40;;;;;;;82.30;35.45;;;0.70;99.90;;;;;;5039121;28;20054;-74
2020/12/09 06:11:06;;;;;;;85.45;35.42;;;0.70;99.90;;;;;;5022536;28;20099;-71
2020/12/09 06:13:33;;;;;;;86.45;36.83;;;0.80;99.90;;;;;;5024882;28;20053;-74
2020/12/09 06:16:02;;;;;;;81.35;34.65;;;0.80;99.90;;;;;;5019336;28;20049;-72
2020/12/09 06:18:30;;;;;;;82.50;38.35;;;0.80;99.90;;;;;;5011031;28;20065;-72
2020/12/09 06:20:57;;;;;;;101.57;41.20;;;0.80;99.90;;;;;;5007560;28;20060;-72
2020/12/09 06:23:27;;;;;;;113.35;43.90;;;0.90;99.90;;;;;;5023077;28;20049;-73
2020/12/09 06:25:55;;;;;;;107.32;42.97;;;0.90;99.90;;;;;;4996564;28;20422;-73
2020/12/09 06:28:23;;;;;;;101.50;40.70;;;1.00;99.90;;;;;;4983357;28;20149;-73
2020/12/09 06:30:53;;;;;;;106.20;42.28;;;1.10;99.90;;;;;;4989625;28;20439;-74
2020/12/09 06:33:32;;;;;;;99.88;41.22;;;1.20;99.90;;;;;;5004616;28;20783;-73
2020/12/09 06:36:11;;;;;;;117.25;43.85;;;1.20;99.90;;;;;;5002896;28;20052;-73
2020/12/09 06:38:37;;;;;;;113.43;39.20;;;1.20;99.90;;;;;;4965820;28;20162;-73
2020/12/09 06:41:04;;;;;;;122.35;42.63;;;1.10;99.90;;;;;;4973344;28;20049;-73
2020/12/09 06:43:31;;;;;;;105.55;41.20;;;1.20;99.90;;;;;;4980702;28;20602;-73
2020/12/09 06:45:57;;;;;;;131.80;46.35;;;1.20;99.90;;;;;;4998704;28;20755;-73
2020/12/09 06:48:27;;;;;;;145.52;49.38;;;1.20;99.90;;;;;;4995801;28;20057;-73
2020/12/09 06:50:53;;;;;;;157.90;48.88;;;1.30;99.90;;;;;;5004135;28;20050;-73
2020/12/09 06:53:21;;;;;;;154.52;48.75;;;1.30;99.90;;;;;;5003052;28;20057;-73
2020/12/09 06:55:50;;;;;;;133.88;49.92;;;1.20;99.90;;;;;;5017422;28;20046;-72
2020/12/09 06:58:24;;;;;;;125.78;47.05;;;1.10;99.90;;;;;;5010595;28;20042;-73
2020/12/09 07:01:09;;;;;;;139.32;50.22;;;1.20;99.90;;;;;;4972293;28;20053;-73
2020/12/09 07:03:37;;;;;;;139.32;48.10;;;1.20;99.90;;;;;;4983786;28;20046;-73
2020/12/09 07:06:32;;;;;;;151.18;50.10;;;1.20;99.90;;;;;;4991381;28;20133;-73
2020/12/09 07:08:58;;;;;;;150.52;52.63;;;1.30;99.90;;;;;;4987119;28;20704;-72
2020/12/09 07:11:25;;;;;;;145.45;49.78;;;1.30;99.90;;;;;;5002138;28;20057;-73
2020/12/09 07:13:59;;;;;;;130.35;46.60;;;1.30;99.90;;;;;;5003250;28;20565;-73
2020/12/09 07:16:29;;;;;;;183.40;56.58;;;1.40;99.90;;;;;;5002938;28;20054;-74
2020/12/09 07:18:59;;;;;;;179.50;58.10;;;1.50;99.90;;;;;;5003577;28;20112;-73
2020/12/09 07:21:29;;;;;;;222.90;60.50;;;1.60;99.90;;;;;;5004813;28;20057;-73
2020/12/09 07:23:58;;;;;;;170.25;53.13;;;1.50;99.90;;;;;;5006934;28;20046;-73
2020/12/09 07:26:24;;;;;;;266.02;65.50;;;1.40;99.90;;;;;;4986711;28;20049;-73
2020/12/09 07:28:51;;;;;;;236.85;63.35;;;1.40;99.90;;;;;;4982156;28;20046;-74
2020/12/09 07:31:18;;;;;;;213.32;60.00;;;1.50;99.90;;;;;;5009220;28;20061;-73
2020/12/09 07:33:44;;;;;;;175.20;56.33;;;1.60;99.90;;;;;;5006995;28;20060;-73
2020/12/09 07:36:11;;;;;;;164.38;52.67;;;1.60;99.90;;;;;;5011566;28;20049;-73
2020/12/09 07:38:43;;;;;;;182.00;54.88;;;1.60;99.90;;;;;;5010245;28;20426;-74
2020/12/09 07:41:09;;;;;;;235.40;65.90;;;1.50;99.90;;;;;;5009879;28;20053;-74
2020/12/09 07:43:36;;;;;;;149.85;51.53;;;1.50;99.90;;;;;;5027030;28;20037;-74
2020/12/09 07:46:04;;;;;;;137.98;49.75;;;1.50;99.90;;;;;;5025209;28;20128;-74
2020/12/09 07:48:31;;;;;;;146.05;54.30;;;1.40;99.90;;;;;;5023788;28;20073;-74
2020/12/09 07:50:59;;;;;;;142.70;53.28;;;1.40;99.90;;;;;;5006054;28;20057;-74
2020/12/09 07:53:26;;;;;;;126.05;51.30;;;1.50;99.90;;;;;;4990244;28;20107;-74
2020/12/09 07:55:53;;;;;;;140.93;51.75;;;1.60;99.90;;;;;;4995850;28;20050;-73
2020/12/09 07:58:19;;;;;;;131.55;52.85;;;1.70;99.90;;;;;;4982341;28;20051;-73
2020/12/09 08:00:48;;;;;;;124.22;50.85;;;1.70;99.90;;;;;;4973231;28;20054;-73
2020/12/09 08:03:25;;;;;;;117.38;49.15;;;1.70;99.90;;;;;;4991125;28;20207;-73
2020/12/09 08:05:54;;;;;;;117.38;48.28;;;1.70;99.90;;;;;;4970338;28;20059;-73
2020/12/09 08:08:21;;;;;;;140.02;54.75;;;1.70;99.90;;;;;;4966605;28;20496;-73
2020/12/09 08:10:51;;;;;;;133.40;54.28;;;1.70;99.90;;;;;;4982475;28;20619;-73
2020/12/09 08:13:26;;;;;;;132.82;52.33;;;1.60;99.90;;;;;;4966629;28;20129;-73
2020/12/09 08:16:06;;;;;;;138.27;53.38;;;1.50;99.90;;;;;;4989020;28;20054;-72
2020/12/09 08:18:34;;;;;;;134.35;55.22;;;1.50;99.90;;;;;;4987137;28;20048;-73
2020/12/09 08:21:00;;;;;;;130.85;52.47;;;1.40;99.90;;;;;;5003796;28;20157;-73
2020/12/09 08:23:46;;;;;;;129.50;50.90;;;1.50;99.90;;;;;;4989157;28;20050;-72
2020/12/09 08:26:27;;;;;;;131.52;54.00;;;1.50;99.90;;;;;;5006251;28;20103;-73
2020/12/09 08:28:53;;;;;;;132.57;57.22;;;1.50;99.90;;;;;;5003845;28;20157;-73
2020/12/09 08:31:22;;;;;;;133.43;55.40;;;1.60;99.90;;;;;;4996880;28;20056;-73
2020/12/09 08:33:50;;;;;;;128.60;52.97;;;1.70;99.90;;;;;;4972536;28;20629;-73
2020/12/09 08:36:18;;;;;;;142.48;54.50;;;1.70;99.90;;;;;;4969670;28;20062;-73
2020/12/09 08:38:49;;;;;;;134.18;56.50;;;1.70;99.90;;;;;;4988441;28;20495;-73
2020/12/09 08:41:28;;;;;;;147.82;58.50;;;1.70;99.90;;;;;;4987849;28;20054;-73
2020/12/09 08:43:57;;;;;;;128.55;54.70;;;1.70;99.90;;;;;;5020141;28;20414;-76
2020/12/09 08:46:25;;;;;;;201.95;64.18;;;1.70;99.90;;;;;;4986827;28;20093;-75
2020/12/09 08:48:53;;;;;;;148.43;57.65;;;1.70;99.90;;;;;;4987311;28;20176;-76
2020/12/09 08:51:27;;;;;;;158.68;59.50;;;1.60;99.90;;;;;;5032879;28;20107;-76
2020/12/09 08:53:55;;;;;;;142.60;56.53;;;1.50;99.90;;;;;;5027126;28;20111;-76
2020/12/09 08:56:25;;;;;;;154.20;59.08;;;1.60;99.90;;;;;;5004379;28;20137;-76
2020/12/09 08:58:51;;;;;;;153.23;60.38;;;1.70;99.90;;;;;;4987716;28;20050;-76
2020/12/09 09:01:17;;;;;;;157.55;59.10;;;1.80;99.90;;;;;;4968130;28;20043;-77
2020/12/09 09:03:45;;;;;;;175.73;61.17;;;1.80;99.90;;;;;;4952901;28;20444;-77
2020/12/09 09:06:12;;;;;;;140.27;56.28;;;1.80;99.90;;;;;;4978943;28;20053;-76
2020/12/09 09:08:38;;;;;;;141.65;58.85;;;1.80;99.90;;;;;;4978341;28;20050;-76
2020/12/09 09:11:05;;;;;;;157.60;59.58;;;1.80;99.90;;;;;;5012004;28;20045;-75
2020/12/09 09:13:31;;;;;;;147.27;61.70;;;1.80;99.90;;;;;;5035219;28;20088;-74
2020/12/09 09:16:04;;;;;;;156.85;58.95;;;1.70;99.90;;;;;;5011602;28;20061;-75
2020/12/09 09:18:30;;;;;;;143.20;58.70;;;1.70;99.90;;;;;;4995232;28;20061;-75
2020/12/09 09:20:56;;;;;;;159.82;60.90;;;1.70;99.90;;;;;;5002035;28;20049;-76
2020/12/09 09:23:23;;;;;;;162.40;62.17;;;1.80;99.90;;;;;;5013162;28;20042;-73
2020/12/09 09:25:49;;;;;;;177.27;59.92;;;1.70;99.90;;;;;;5026047;28;20048;-74
2020/12/09 09:28:15;;;;;;;172.90;63.47;;;1.70;99.90;;;;;;5016042;28;20053;-74
2020/12/09 09:30:41;;;;;;;185.68;62.70;;;1.70;99.90;;;;;;5005562;28;20050;-74
2020/12/09 09:33:08;;;;;;;237.23;71.10;;;1.70;99.90;;;;;;5022031;28;20041;-74
2020/12/09 09:35:34;;;;;;;245.43;72.78;;;1.80;99.90;;;;;;5004892;28;20707;-72
2020/12/09 09:38:01;;;;;;;315.98;76.88;;;1.70;99.90;;;;;;5005056;28;20718;-74
2020/12/09 09:40:27;;;;;;;249.55;75.32;;;1.70;99.90;;;;;;5008174;28;20049;-74
2020/12/09 09:42:55;;;;;;;296.13;76.57;;;1.70;99.90;;;;;;5023699;28;20073;-74
2020/12/09 09:45:23;;;;;;;317.25;81.88;;;1.60;99.90;;;;;;5016372;28;20471;-72
2020/12/09 09:47:49;;;;;;;257.17;76.18;;;1.60;99.90;;;;;;4996457;28;20054;-74
2020/12/09 09:50:15;;;;;;;278.75;79.32;;;1.70;99.90;;;;;;5005381;28;20045;-73
2020/12/09 09:52:42;;;;;;;273.10;78.75;;;1.70;99.90;;;;;;4987313;28;20506;-73
2020/12/09 09:55:08;;;;;;;254.02;73.72;;;1.80;99.90;;;;;;5004810;28;20060;-73
2020/12/09 09:57:36;;;;;;;266.10;76.80;;;1.80;99.90;;;;;;4983531;28;20515;-73
2020/12/09 10:00:05;;;;;;;239.77;71.72;;;1.90;99.90;;;;;;4998102;28;20583;-74
2020/12/09 10:02:37;;;;;;;286.33;77.50;;;1.90;99.90;;;;;;5001826;28;20225;-73
2020/12/09 10:05:04;;;;;;;442.13;97.10;;;1.80;99.90;;;;;;4985539;28;20041;-73
2020/12/09 10:07:30;;;;;;;273.23;76.53;;;1.80;99.90;;;;;;4978554;28;20472;-74
2020/12/09 10:10:01;;;;;;;350.02;84.88;;;1.90;99.90;;;;;;4963767;28;20153;-74
2020/12/09 10:12:27;;;;;;;478.20;92.05;;;1.90;99.90;;;;;;4978069;28;20050;-73
2020/12/09 10:14:54;;;;;;;462.30;97.88;;;1.80;99.90;;;;;;4982641;28;20154;-72
2020/12/09 10:17:20;;;;;;;468.20;97.25;;;1.80;99.90;;;;;;4981791;28;20078;-73
2020/12/09 10:19:46;;;;;;;442.48;91.70;;;1.70;99.90;;;;;;4952659;28;20070;-74
2020/12/09 10:22:13;;;;;;;518.65;103.70;;;1.70;99.90;;;;;;4979363;28;20046;-74
2020/12/09 10:24:40;;;;;;;419.60;92.18;;;1.70;99.90;;;;;;4976569;28;20122;-73
2020/12/09 10:27:06;;;;;;;444.80;95.18;;;1.80;99.90;;;;;;4978836;28;20868;-75
2020/12/09 10:29:32;;;;;;;384.58;85.35;;;1.80;99.90;;;;;;4981848;28;20202;-74
2020/12/09 10:31:59;;;;;;;290.10;78.63;;;1.80;99.90;;;;;;4978652;28;20046;-73
2020/12/09 10:34:25;;;;;;;444.52;94.78;;;1.90;99.90;;;;;;4983445;28;20157;-73
2020/12/09 10:36:52;;;;;;;428.75;95.85;;;2.00;99.90;;;;;;4982642;28;20054;-72
2020/12/09 10:39:21;;;;;;;301.80;77.05;;;2.00;99.90;;;;;;4997322;28;20051;-74
2020/12/09 10:41:48;;;;;;;438.35;95.15;;;2.20;99.90;;;;;;4982988;28;20165;-74
2020/12/09 10:44:19;;;;;;;404.27;99.40;;;2.20;99.90;;;;;;4983745;28;20046;-72
2020/12/09 10:46:46;;;;;;;314.23;83.50;;;2.10;99.90;;;;;;4990805;28;20141;-73
2020/12/09 10:49:17;;;;;;;374.83;91.30;;;2.20;99.90;;;;;;4998774;28;20478;-73
2020/12/09 10:51:45;;;;;;;405.75;97.05;;;2.20;99.90;;;;;;5002172;28;20042;-72
2020/12/09 10:54:13;;;;;;;351.20;92.35;;;2.20;99.90;;;;;;4992037;28;20151;-71
2020/12/09 10:56:39;;;;;;;270.05;79.85;;;2.20;99.90;;;;;;4978603;28;20059;-73
2020/12/09 10:59:06;;;;;;;275.25;79.30;;;2.30;99.90;;;;;;4951995;28;20057;-73
2020/12/09 11:01:33;;;;;;;273.08;79.97;;;2.30;99.90;;;;;;4986333;28;20133;-72
2020/12/09 11:04:00;;;;;;;284.77;76.32;;;2.40;99.90;;;;;;4987459;28;20611;-72
2020/12/09 11:06:31;;;;;;;314.52;85.43;;;2.40;99.90;;;;;;4997632;28;20116;-73
2020/12/09 11:08:59;;;;;;;295.75;81.85;;;2.50;99.90;;;;;;5000480;28;20099;-73
2020/12/09 11:11:26;;;;;;;289.73;84.07;;;2.50;99.90;;;;;;5005673;28;20054;-73
2020/12/09 11:13:53;;;;;;;266.60;79.82;;;2.50;99.90;;;;;;5006542;28;20495;-73
2020/12/09 11:16:21;;;;;;;297.10;84.22;;;2.60;99.90;;;;;;4990001;28;20137;-73
2020/12/09 11:18:51;;;;;;;261.63;78.05;;;2.60;99.90;;;;;;4972459;28;20129;-73
2020/12/09 11:21:19;;;;;;;250.20;75.93;;;2.70;99.90;;;;;;4988107;28;20057;-73
2020/12/09 11:23:46;;;;;;;272.92;74.18;;;2.60;99.90;;;;;;4969240;28;20058;-73
2020/12/09 11:26:13;;;;;;;232.45;71.05;;;2.60;99.90;;;;;;4985815;28;20054;-74
2020/12/09 11:28:39;;;;;;;228.35;73.38;;;2.50;99.90;;;;;;4980132;28;20593;-74
2020/12/09 11:31:07;;;;;;;243.57;76.75;;;2.50;99.90;;;;;;4985124;28;20054;-74
2020/12/09 11:33:33;;;;;;;236.90;78.00;;;2.50;99.90;;;;;;4970729;28;20116;-74
2020/12/09 11:36:00;;;;;;;213.30;73.30;;;2.40;99.90;;;;;;4996346;28;20056;-74
2020/12/09 11:38:27;;;;;;;241.95;74.63;;;2.50;99.90;;;;;;5004715;28;20042;-74
2020/12/09 11:40:54;;;;;;;236.73;76.22;;;2.50;99.90;;;;;;5005746;28;20045;-76
2020/12/09 11:43:20;;;;;;;216.27;69.07;;;2.40;99.90;;;;;;5006843;28;20065;-74
2020/12/09 11:45:48;;;;;;;237.85;74.88;;;2.40;99.90;;;;;;5007529;28;20042;-75
2020/12/09 11:48:15;;;;;;;214.15;69.90;;;2.30;99.90;;;;;;5005914;28;20142;-73
2020/12/09 11:50:41;;;;;;;214.38;74.00;;;2.30;99.90;;;;;;5005294;28;20541;-73
2020/12/09 11:53:08;;;;;;;180.30;65.20;;;2.40;99.90;;;;;;4987786;28;20066;-73
2020/12/09 11:55:35;;;;;;;194.27;67.22;;;2.40;99.90;;;;;;4985658;28;20104;-73
2020/12/09 11:58:03;;;;;;;182.88;66.90;;;2.50;99.90;;;;;;4985999;28;20080;-73
2020/12/09 12:00:30;;;;;;;189.95;67.50;;;2.50;99.90;;;;;;4969770;28;20838;-73
2020/12/09 12:02:57;;;;;;;191.55;69.38;;;2.50;99.90;;;;;;4985655;28;20058;-74
2020/12/09 12:05:26;;;;;;;199.50;68.30;;;2.40;99.90;;;;;;4988483;28;20049;-74
2020/12/09 12:07:53;;;;;;;199.45;67.47;;;2.30;99.90;;;;;;5003944;28;20069;-74
2020/12/09 12:10:19;;;;;;;193.60;68.57;;;2.20;99.90;;;;;;4993192;28;20416;-72
2020/12/09 12:12:46;;;;;;;188.02;65.78;;;2.00;99.90;;;;;;4988530;28;20046;-74
2020/12/09 12:15:12;;;;;;;199.32;70.45;;;2.00;99.90;;;;;;5004313;28;20142;-72
2020/12/09 12:17:38;;;;;;;229.82;69.75;;;2.10;99.90;;;;;;5000779;28;20146;-74
2020/12/09 12:20:05;;;;;;;255.52;71.90;;;2.10;99.90;;;;;;4987541;28;20050;-73
2020/12/09 12:22:31;;;;;;;263.75;72.53;;;1.90;99.90;;;;;;4965635;28;20047;-73
2020/12/09 12:24:57;;;;;;;313.40;77.28;;;2.00;99.90;;;;;;4967268;28;20142;-74
2020/12/09 12:27:24;;;;;;;340.50;80.72;;;2.00;99.90;;;;;;5004559;28;20049;-74
2020/12/09 12:29:51;;;;;;;416.80;87.30;;;1.90;99.90;;;;;;5005032;28;20116;-73
2020/12/09 12:32:17;;;;;;;382.00;81.00;;;1.80;99.90;;;;;;5006137;28;20273;-74
2020/12/09 12:34:43;;;;;;;545.78;96.15;;;1.80;99.90;;;;;;5004362;28;20147;-73